Central City, Missouri
Current Conditions -  °F | °C
As of 1:53 PM on Thursday 30 Oct 2014 (Local Time) from KJLN Reporting Station
Clear Clear  
Wind Chill: 68°   Ceiling: Unl
Heat Index: 68°   Visibility: 10mi
Dew Point: 44°   Wind: 13mph
Humidity: 42%   Direction: 290°WNW
Pressure: 30.04"   Gusts: 22mph
Location:  37.1074°N, 94.5218°W
Report Text: KJLN 301853Z 29011G19KT 10SM CLR 20/07 A3004 RMK AO2 SLP168 T02000067
Loading
Personal Weather Stations






























Interactive Weather Map
Tropical Storm Tracking
New forecast layout! Learn more

10-Day Weather Forecast

Advertisements
Track Severe Weather on mobile